createdAt,value
2023-05-13T00:00:55.854Z,101260.20
2023-05-13T00:01:57.973Z,101259.42
2023-05-13T00:03:00.170Z,101257.86
2023-05-13T00:04:03.172Z,101261.07
2023-05-13T00:05:08.439Z,101264.28
2023-05-13T00:06:11.521Z,101261.94
2023-05-13T00:07:13.813Z,101270.73
2023-05-13T00:08:15.973Z,101263.61
2023-05-13T00:09:18.258Z,101269.60
2023-05-13T00:10:21.110Z,101272.81
2023-05-13T00:11:23.888Z,101276.80
2023-05-13T00:12:25.829Z,101275.23
2023-05-13T00:17:48.911Z,101270.63
2023-05-13T00:18:51.304Z,101271.92
2023-05-13T00:19:53.714Z,101275.95
2023-05-13T00:20:56.409Z,101274.81
2023-05-13T00:21:58.652Z,101278.02
2023-05-13T00:23:00.744Z,101276.89
2023-05-13T00:24:06.098Z,101274.98
2023-05-13T00:25:09.256Z,101267.08
2023-05-13T00:26:11.779Z,101270.28
2023-05-13T00:27:13.757Z,101269.94
2023-05-13T00:28:15.766Z,101266.38
2023-05-13T00:29:17.940Z,101264.03
2023-05-13T00:30:20.769Z,101272.78
2023-05-13T00:31:23.613Z,101264.92
2023-05-13T00:32:26.319Z,101275.24
2023-05-13T00:33:29.573Z,101271.69
2023-05-13T00:34:31.536Z,101263.00
2023-05-13T00:35:33.666Z,101275.31
2023-05-13T00:36:36.069Z,101267.77
2023-05-13T00:37:38.860Z,101268.98
2023-05-13T00:38:41.163Z,101272.97
2023-05-13T00:39:43.297Z,101271.41
2023-05-13T00:40:46.659Z,101270.63
2023-05-13T00:41:49.217Z,101266.29
2023-05-13T00:42:51.199Z,101268.28
2023-05-13T00:43:57.060Z,101271.06
2023-05-13T00:44:59.155Z,101277.03
2023-05-13T00:46:01.434Z,101272.70
2023-05-13T00:47:05.404Z,101270.35
2023-05-13T00:48:08.002Z,101273.55
2023-05-13T00:49:10.288Z,101276.33
2023-05-13T00:50:13.960Z,101283.52
2023-05-13T00:51:16.263Z,101274.41
2023-05-13T00:52:19.483Z,101269.33
2023-05-13T00:53:21.985Z,101274.52
2023-05-13T00:54:25.154Z,101277.30
2023-05-13T00:55:27.321Z,101274.16
2023-05-13T00:56:29.788Z,101270.61
2023-05-13T00:57:32.394Z,101272.60
2023-05-13T00:58:34.549Z,101271.04
2023-05-13T00:59:36.608Z,101265.92
2023-05-13T01:00:53.820Z,101268.70
2023-05-13T01:02:13.961Z,101274.24
2023-05-13T01:07:54.564Z,101261.66
2023-05-13T01:08:59.806Z,101266.84
2023-05-13T01:10:15.112Z,101265.72
2023-05-13T01:11:20.963Z,101278.48
2023-05-13T01:12:35.716Z,101269.02
2023-05-13T01:13:38.124Z,101273.42
2023-05-13T01:14:43.905Z,101280.19
2023-05-13T01:17:18.693Z,101274.92
2023-05-13T01:18:24.546Z,101279.12
2023-05-13T01:19:44.600Z,101277.98
2023-05-13T01:20:46.785Z,101279.97
2023-05-13T01:21:52.832Z,101280.40
2023-05-13T01:22:54.978Z,101272.86
2023-05-13T01:23:57.272Z,101268.52
2023-05-13T01:25:00.473Z,101272.50
2023-05-13T01:26:03.439Z,101270.97
2023-05-13T01:27:06.847Z,101275.73
2023-05-13T01:28:08.875Z,101281.70
2023-05-13T01:29:11.764Z,101278.93
2023-05-13T01:30:14.668Z,101282.91
2023-05-13T01:31:18.642Z,101271.82
2023-05-13T01:32:23.114Z,101281.34
2023-05-13T01:33:25.454Z,101283.34
2023-05-13T01:34:28.935Z,101276.23
2023-05-13T01:35:31.214Z,101274.66
2023-05-13T01:36:34.763Z,101279.42
2023-05-13T01:37:37.045Z,101271.11
2023-05-13T01:38:39.241Z,101275.09
2023-05-13T01:39:41.398Z,101277.86
2023-05-13T01:40:45.385Z,101279.84
2023-05-13T01:41:47.545Z,101276.30
2023-05-13T01:42:49.733Z,101274.73
2023-05-13T01:43:51.776Z,101273.52
2023-05-13T01:44:53.922Z,101275.52
2023-05-13T01:45:56.647Z,101278.28
2023-05-13T01:46:59.975Z,101277.08
2023-05-13T01:48:03.183Z,101271.96
2023-05-13T01:49:07.391Z,101277.50
2023-05-13T01:50:11.878Z,101281.48
2023-05-13T01:51:15.662Z,101272.38
2023-05-13T01:52:18.236Z,101272.03
2023-05-13T01:53:21.086Z,101273.59
2023-05-13T01:54:24.498Z,101276.79
2023-05-13T01:55:28.432Z,101280.77
2023-05-13T01:56:32.901Z,101277.64
2023-05-13T01:57:35.117Z,101280.41
2023-05-13T01:58:39.297Z,101276.08
2023-05-13T01:59:41.294Z,101288.05
2023-05-13T02:00:44.134Z,101277.37
2023-05-13T02:01:48.096Z,101277.37
2023-05-13T02:02:50.588Z,101273.04
2023-05-13T02:03:52.972Z,101273.47
2023-05-13T02:04:55.458Z,101273.47
2023-05-13T02:05:58.136Z,101277.44
2023-05-13T02:07:01.384Z,101271.90
2023-05-13T02:08:08.183Z,101275.88
2023-05-13T02:09:10.171Z,101277.09
2023-05-13T02:10:14.435Z,101279.08
2023-05-13T02:11:16.414Z,101281.48
2023-05-13T02:12:18.521Z,101278.72
2023-05-13T02:13:20.984Z,101283.48
2023-05-13T02:14:23.055Z,101276.38
2023-05-13T02:15:25.209Z,101283.48
2023-05-13T02:16:27.670Z,101281.13
2023-05-13T02:17:29.819Z,101283.91
2023-05-13T02:18:32.251Z,101291.44
2023-05-13T02:19:34.943Z,101286.31
2023-05-13T02:20:37.477Z,101280.77
2023-05-13T02:21:39.899Z,101280.77
2023-05-13T02:22:43.952Z,101287.09
2023-05-13T02:23:45.913Z,101286.31
2023-05-13T02:24:48.089Z,101283.97
2023-05-13T02:25:50.185Z,101285.53
2023-05-13T02:26:52.931Z,101283.97
2023-05-13T02:27:55.617Z,101288.30
2023-05-13T02:28:58.527Z,101289.51
2023-05-13T02:30:00.732Z,101283.97
2023-05-13T02:31:02.971Z,101285.17
2023-05-13T02:32:08.022Z,101287.94
2023-05-13T02:33:10.344Z,101285.17
2023-05-13T02:34:15.645Z,101278.09
2023-05-13T02:35:20.533Z,101287.19
2023-05-13T02:36:23.023Z,101284.42
2023-05-13T02:37:25.524Z,101291.50
2023-05-13T02:38:29.559Z,101285.95
2023-05-13T02:39:32.824Z,101290.30
2023-05-13T02:40:36.352Z,101285.53
2023-05-13T02:41:39.752Z,101289.87
2023-05-13T02:42:42.466Z,101289.45
2023-05-13T02:43:45.899Z,101287.45
2023-05-13T02:44:47.908Z,101281.13
2023-05-13T02:45:50.365Z,101293.00
2023-05-13T02:46:52.576Z,101291.01
2023-05-13T02:47:55.325Z,101293.36
2023-05-13T02:48:58.858Z,101293.36
2023-05-13T02:50:04.896Z,101299.69
2023-05-13T02:51:07.068Z,101293.29
2023-05-13T02:52:09.212Z,101304.37
2023-05-13T02:53:11.832Z,101303.95
2023-05-13T02:54:15.822Z,101300.77
2023-05-13T02:55:19.496Z,101301.55
2023-05-13T02:56:22.077Z,101307.87
2023-05-13T02:57:24.192Z,101308.23
2023-05-13T02:58:26.961Z,101300.70
2023-05-13T02:59:29.878Z,101303.05
2023-05-13T03:00:33.054Z,101305.36
2023-05-13T03:01:35.169Z,101301.38
2023-05-13T03:02:37.912Z,101302.95
2023-05-13T03:03:40.360Z,101302.52
2023-05-13T03:04:42.741Z,101303.30
2023-05-13T03:05:44.983Z,101305.66
2023-05-13T03:06:51.210Z,101309.20
2023-05-13T03:07:53.520Z,101314.33
2023-05-13T03:08:55.612Z,101309.14
2023-05-13T03:09:57.979Z,101313.48
2023-05-13T03:11:01.457Z,101313.84
2023-05-13T03:12:07.104Z,101315.41
2023-05-13T03:13:09.043Z,101316.97
2023-05-13T03:14:11.310Z,101312.98
2023-05-13T03:15:14.751Z,101313.31
2023-05-13T03:16:17.869Z,101316.45
2023-05-13T03:17:24.368Z,101316.02
2023-05-13T03:18:26.688Z,101320.72
2023-05-13T03:19:29.068Z,101321.07
2023-05-13T03:20:31.776Z,101317.45
2023-05-13T03:21:34.953Z,101325.34
2023-05-13T03:22:37.398Z,101326.48
2023-05-13T03:23:40.182Z,101316.53
2023-05-13T03:24:42.885Z,101320.41
2023-05-13T03:25:45.559Z,101327.88
2023-05-13T03:26:49.252Z,101324.67
2023-05-13T03:27:51.462Z,101316.71
2023-05-13T03:28:55.333Z,101323.83
2023-05-13T03:30:01.628Z,101327.38
2023-05-13T03:31:04.630Z,101324.53
2023-05-13T03:32:08.872Z,101332.79
2023-05-13T03:33:10.887Z,101327.92
2023-05-13T03:34:12.903Z,101320.73
2023-05-13T03:35:15.338Z,101333.75
2023-05-13T03:36:19.139Z,101328.13
2023-05-13T03:37:21.290Z,101327.27
2023-05-13T03:38:24.119Z,101323.64
2023-05-13T03:39:26.510Z,101333.84
2023-05-13T03:40:28.635Z,101336.55
2023-05-13T03:41:32.681Z,101335.69
2023-05-13T03:42:34.811Z,101330.06
2023-05-13T03:43:38.014Z,101336.75
2023-05-13T03:44:42.055Z,101335.89
2023-05-13T03:45:46.035Z,101334.25
2023-05-13T03:46:49.241Z,101330.58
2023-05-13T03:47:51.868Z,101338.84
2023-05-13T03:48:54.675Z,101341.53
2023-05-13T03:49:57.377Z,101345.02
2023-05-13T03:51:01.334Z,101344.16
2023-05-13T03:52:06.683Z,101345.25
2023-05-13T03:53:10.150Z,101341.61
2023-05-13T03:54:12.462Z,101349.08
2023-05-13T03:55:16.004Z,101351.78
2023-05-13T03:56:19.505Z,101348.14
2023-05-13T03:57:21.623Z,101350.05
2023-05-13T03:58:24.378Z,101349.51
2023-05-13T03:59:26.392Z,101348.67
2023-05-13T04:00:28.799Z,101346.59
2023-05-13T04:01:31.046Z,101346.94
2023-05-13T04:02:33.191Z,101349.64
2023-05-13T04:03:36.279Z,101352.77
2023-05-13T04:04:38.445Z,101356.21
2023-05-13T04:05:43.844Z,101355.34
2023-05-13T04:06:47.631Z,101353.69
2023-05-13T04:07:49.705Z,101354.83
2023-05-13T04:08:51.719Z,101349.95
2023-05-13T04:09:53.860Z,101351.09
2023-05-13T04:10:56.453Z,101353.75
2023-05-13T04:12:00.396Z,101350.09
2023-05-13T04:13:02.579Z,101359.91
2023-05-13T04:14:04.701Z,101354.70
2023-05-13T04:15:10.168Z,101358.95
2023-05-13T04:16:12.421Z,101354.95
2023-05-13T04:17:14.685Z,101363.20
2023-05-13T04:18:17.305Z,101354.74
2023-05-13T04:19:20.179Z,101357.09
2023-05-13T04:20:22.932Z,101348.66
2023-05-13T04:21:25.412Z,101356.13
2023-05-13T04:22:27.456Z,101356.03
2023-05-13T04:23:29.741Z,101357.47
2023-05-13T04:24:33.018Z,101359.37
2023-05-13T04:25:35.346Z,101358.06
2023-05-13T04:26:37.945Z,101362.75
2023-05-13T04:27:40.105Z,101361.09
2023-05-13T04:28:44.330Z,101361.78
2023-05-13T04:29:46.340Z,101357.65
2023-05-13T04:30:49.070Z,101364.34
2023-05-13T04:31:51.607Z,101369.81
2023-05-13T04:32:54.313Z,101361.02
2023-05-13T04:33:56.948Z,101366.48
2023-05-13T04:35:00.223Z,101368.39
2023-05-13T04:36:06.542Z,101373.83
2023-05-13T04:37:08.593Z,101375.30
2023-05-13T04:38:11.787Z,101369.63
2023-05-13T04:39:14.646Z,101370.75
2023-05-13T04:40:19.282Z,101371.09
2023-05-13T04:41:23.078Z,101369.77
2023-05-13T04:42:25.090Z,101371.20
2023-05-13T04:43:27.247Z,101371.91
2023-05-13T04:44:31.348Z,101375.03
2023-05-13T04:45:33.835Z,101374.92
2023-05-13T04:46:37.784Z,101368.81
2023-05-13T04:47:40.404Z,101362.66
2023-05-13T04:48:42.516Z,101368.13
2023-05-13T04:49:45.551Z,101362.01
2023-05-13T04:50:50.583Z,101364.69
2023-05-13T04:51:53.697Z,101364.11
2023-05-13T04:52:56.392Z,101370.69
2023-05-13T04:53:58.758Z,101367.34
2023-05-13T04:55:01.430Z,101373.11
2023-05-13T04:56:07.762Z,101376.13
2023-05-13T04:57:09.828Z,101370.00
2023-05-13T04:58:12.027Z,101365.76
2023-05-13T04:59:14.158Z,101362.72
2023-05-13T05:00:17.959Z,101368.84
2023-05-13T05:01:22.056Z,101369.36
2023-05-13T05:02:25.944Z,101361.54
2023-05-13T05:03:28.784Z,101364.88
2023-05-13T05:04:31.323Z,101366.62
2023-05-13T05:05:33.850Z,101366.05
2023-05-13T05:06:36.993Z,101364.70
2023-05-13T05:07:39.956Z,101372.97
2023-05-13T05:08:42.935Z,101372.05
2023-05-13T05:09:45.208Z,101370.69
2023-05-13T05:10:47.798Z,101365.77
2023-05-13T05:11:50.880Z,101374.47
2023-05-13T05:12:54.801Z,101369.22
2023-05-13T05:13:58.782Z,101368.31
2023-05-13T05:15:00.897Z,101372.18
2023-05-13T05:16:03.971Z,101372.05
2023-05-13T05:17:08.060Z,101364.79
2023-05-13T05:18:10.611Z,101367.91
2023-05-13T05:19:14.685Z,101371.03
2023-05-13T05:20:17.870Z,101365.77
2023-05-13T05:21:23.688Z,101371.23
2023-05-13T05:22:26.489Z,101363.92
2023-05-13T05:23:28.671Z,101365.81
2023-05-13T05:24:31.504Z,101361.66
2023-05-13T05:25:33.640Z,101365.42
2023-05-13T05:26:35.836Z,101364.06
2023-05-13T05:27:38.920Z,101366.24
2023-05-13T05:28:42.439Z,101370.78
2023-05-13T05:29:44.490Z,101358.25
2023-05-13T05:30:47.047Z,101361.66
2023-05-13T05:31:53.912Z,101361.06
2023-05-13T05:32:56.504Z,101357.68
2023-05-13T05:33:59.249Z,101363.00
2023-05-13T05:35:01.385Z,101360.81
2023-05-13T05:36:07.181Z,101360.22
2023-05-13T05:37:09.814Z,101360.41
2023-05-13T05:38:13.773Z,101360.13
2023-05-13T05:39:16.567Z,101358.75
2023-05-13T05:40:21.936Z,101359.70
2023-05-13T05:41:25.160Z,101355.53
2023-05-13T05:42:27.339Z,101362.37
2023-05-13T05:43:29.311Z,101358.50
2023-05-13T05:44:31.418Z,101359.45
2023-05-13T05:45:37.049Z,101359.60
2023-05-13T05:46:40.779Z,101355.73
2023-05-13T05:47:43.572Z,101363.83
2023-05-13T05:48:47.271Z,101360.39
2023-05-13T05:49:49.474Z,101364.91
2023-05-13T05:50:52.290Z,101362.75
2023-05-13T05:51:56.130Z,101360.58
2023-05-13T05:53:00.270Z,101366.30
2023-05-13T05:54:03.085Z,101368.49
2023-05-13T05:55:09.548Z,101363.05
2023-05-13T05:56:12.390Z,101369.88
2023-05-13T05:57:14.440Z,101364.30
2023-05-13T05:58:16.730Z,101370.19
2023-05-13T05:59:19.133Z,101368.63
2023-05-13T06:00:22.823Z,101370.61
2023-05-13T06:01:25.240Z,101367.02
2023-05-13T06:02:28.151Z,101367.95
2023-05-13T06:03:30.747Z,101361.22
2023-05-13T06:04:33.736Z,101370.23
2023-05-13T06:05:36.168Z,101372.09
2023-05-13T06:06:39.485Z,101364.47
2023-05-13T06:07:42.126Z,101368.36
2023-05-13T06:08:44.356Z,101373.96
2023-05-13T06:09:46.374Z,101371.94
2023-05-13T06:10:49.228Z,101368.19
2023-05-13T06:11:52.018Z,101367.22
2023-05-13T06:12:54.247Z,101368.61
2023-05-13T06:13:56.605Z,101370.47
2023-05-13T06:14:59.587Z,101370.61
2023-05-13T06:16:01.859Z,101366.86
2023-05-13T06:17:05.126Z,101363.86
2023-05-13T06:18:07.796Z,101369.60
2023-05-13T06:19:11.357Z,101372.71
2023-05-13T06:20:15.080Z,101365.86
2023-05-13T06:21:17.394Z,101368.05
2023-05-13T06:22:19.548Z,101366.80
2023-05-13T06:23:21.855Z,101365.34
2023-05-13T06:24:24.849Z,101367.67
2023-05-13T06:25:26.852Z,101369.06
2023-05-13T06:26:29.075Z,101371.69
2023-05-13T06:27:31.193Z,101365.44
2023-05-13T06:28:33.321Z,101363.67
2023-05-13T06:29:35.502Z,101366.78
2023-05-13T06:30:38.058Z,101367.86
2023-05-13T06:31:40.317Z,101368.64
2023-05-13T06:32:53.571Z,101364.58
2023-05-13T06:33:46.733Z,101363.03
2023-05-13T06:34:48.824Z,101370.20
2023-05-13T06:35:50.956Z,101367.69
2023-05-13T06:36:55.508Z,101370.49
2023-05-13T06:37:58.297Z,101367.99
2023-05-13T06:39:00.386Z,101368.59
2023-05-13T06:40:05.387Z,101371.49
2023-05-13T06:41:09.494Z,101367.73
2023-05-13T06:42:14.286Z,101367.56
2023-05-13T06:49:05.536Z,101371.77
2023-05-13T06:50:12.353Z,101369.33
2023-05-13T06:51:14.455Z,101368.38
2023-05-13T06:52:16.509Z,101374.28
2023-05-13T06:53:18.520Z,101366.64
2023-05-13T06:54:20.518Z,101366.75
2023-05-13T06:55:22.733Z,101372.19
2023-05-13T06:56:25.975Z,101367.91
2023-05-13T06:57:41.298Z,101367.73
2023-05-13T06:58:32.064Z,101363.48
2023-05-13T06:59:35.960Z,101356.94
2023-05-13T07:00:40.449Z,101368.77
2023-05-13T07:01:42.670Z,101361.41
2023-05-13T07:02:44.699Z,101369.33
2023-05-13T07:03:47.054Z,101364.78
2023-05-13T07:04:49.190Z,101371.77
2023-05-13T07:05:51.404Z,101363.16
2023-05-13T07:06:56.141Z,101369.55
2023-05-13T07:07:58.188Z,101367.03
2023-05-13T07:09:00.321Z,101364.22
2023-05-13T07:10:02.636Z,101363.74
2023-05-13T07:11:04.677Z,101370.70
2023-05-13T07:12:06.746Z,101368.47
2023-05-13T07:13:10.732Z,101363.92
2023-05-13T07:14:12.985Z,101358.41
2023-05-13T07:15:15.039Z,101363.13
2023-05-13T07:16:17.238Z,101364.78
2023-05-13T07:17:19.409Z,101364.11
2023-05-13T07:18:21.791Z,101359.27
2023-05-13T07:19:24.039Z,101350.83
2023-05-13T07:20:26.892Z,101364.69
2023-05-13T07:21:29.558Z,101357.03
2023-05-13T07:22:31.606Z,101352.73
2023-05-13T07:23:33.753Z,101349.73
2023-05-13T07:24:35.760Z,101353.80
2023-05-13T07:25:37.768Z,101356.91
2023-05-13T07:26:40.055Z,101351.86
2023-05-13T07:27:42.248Z,101347.59
2023-05-13T07:28:44.564Z,101355.80
2023-05-13T07:29:46.777Z,101358.73
2023-05-13T07:30:48.990Z,101357.77
2023-05-13T07:31:51.552Z,101362.22
2023-05-13T07:32:54.222Z,101361.98
2023-05-13T07:33:57.071Z,101361.73
2023-05-13T07:34:59.035Z,101353.55
2023-05-13T07:36:00.957Z,101350.47
2023-05-13T07:37:02.936Z,101355.87
2023-05-13T07:38:06.706Z,101350.82
2023-05-13T07:39:08.965Z,101358.57
2023-05-13T07:40:13.365Z,101352.74
2023-05-13T07:41:15.821Z,101349.16
2023-05-13T07:42:17.896Z,101352.17
2023-05-13T07:43:19.998Z,101349.64
2023-05-13T07:44:22.075Z,101349.92
2023-05-13T07:45:24.386Z,101342.03
2023-05-13T07:46:27.400Z,101336.97
2023-05-13T07:47:29.485Z,101344.92
2023-05-13T07:48:31.843Z,101341.63
2023-05-13T07:49:33.863Z,101344.72
2023-05-13T07:50:36.629Z,101342.48
2023-05-13T07:51:39.969Z,101338.67
2023-05-13T07:52:42.223Z,101342.55
2023-05-13T07:53:44.772Z,101341.26
2023-05-13T07:54:47.752Z,101340.56
2023-05-13T07:55:49.968Z,101341.91
2023-05-13T07:56:52.022Z,101342.47
2023-05-13T07:57:54.139Z,101340.99
2023-05-13T07:58:58.191Z,101342.80
2023-05-13T08:00:00.378Z,101339.48
2023-05-13T08:01:02.846Z,101347.23
2023-05-13T08:02:06.656Z,101341.39
2023-05-13T08:03:08.914Z,101336.53
2023-05-13T08:04:11.797Z,101343.53
2023-05-13T08:05:14.514Z,101339.70
2023-05-13T08:06:16.529Z,101338.99
2023-05-13T08:07:18.741Z,101342.37
2023-05-13T08:08:20.645Z,101333.70
2023-05-13T08:09:22.690Z,101335.03
2023-05-13T08:10:26.761Z,101331.97
2023-05-13T08:11:28.821Z,101334.58
2023-05-13T08:12:30.992Z,101338.45
2023-05-13T08:13:33.300Z,101339.00
2023-05-13T08:14:35.988Z,101336.47
2023-05-13T08:15:38.099Z,101339.28
2023-05-13T08:16:41.064Z,101334.42
2023-05-13T08:17:43.673Z,101342.10
2023-05-13T08:18:46.980Z,101338.51
2023-05-13T08:19:50.191Z,101332.09
2023-05-13T08:20:53.408Z,101337.23
2023-05-13T08:21:55.629Z,101333.15
2023-05-13T08:22:57.795Z,101322.65
2023-05-13T08:23:59.813Z,101331.35
2023-05-13T08:25:02.070Z,101328.02
2023-05-13T08:26:04.817Z,101331.63
2023-05-13T08:27:06.909Z,101328.09
2023-05-13T08:28:08.995Z,101336.06
2023-05-13T08:29:10.980Z,101332.24
2023-05-13T08:30:16.951Z,101331.97
2023-05-13T08:31:19.028Z,101326.61
2023-05-13T08:32:21.143Z,101327.38
2023-05-13T08:33:24.009Z,101317.65
2023-05-13T08:34:26.089Z,101315.33
2023-05-13T08:35:28.993Z,101328.87
2023-05-13T08:36:31.573Z,101326.83
2023-05-13T08:37:33.560Z,101321.46
2023-05-13T08:38:35.528Z,101317.38
2023-05-13T08:39:37.605Z,101319.20
2023-05-13T08:40:41.463Z,101317.42
2023-05-13T08:41:44.243Z,101322.81
2023-05-13T08:42:47.046Z,101327.95
2023-05-13T08:43:49.617Z,101325.91
2023-05-13T08:44:51.884Z,101318.73
2023-05-13T08:45:55.252Z,101309.99
2023-05-13T08:48:10.762Z,101300.09
2023-05-13T08:49:13.270Z,101304.63
2023-05-13T08:50:15.552Z,101303.36
2023-05-13T08:51:18.444Z,101302.36
2023-05-13T08:52:20.442Z,101296.22
2023-05-13T08:53:22.437Z,101296.22
2023-05-13T08:54:24.675Z,101302.91
2023-05-13T08:55:26.762Z,101296.27
2023-05-13T08:56:28.910Z,101295.27
2023-05-13T08:57:30.947Z,101287.58
2023-05-13T08:58:32.936Z,101289.62
2023-05-13T08:59:34.847Z,101291.18
2023-05-13T09:00:37.215Z,101289.38
2023-05-13T09:01:39.393Z,101285.78
2023-05-13T09:02:42.051Z,101285.54
2023-05-13T09:03:54.236Z,101288.86
2023-05-13T09:04:56.608Z,101293.22
2023-05-13T09:06:02.060Z,101285.54
2023-05-13T09:07:07.794Z,101288.88
2023-05-13T09:08:09.959Z,101277.89
2023-05-13T09:09:12.034Z,101285.86
2023-05-13T09:10:15.137Z,101285.36
2023-05-13T09:11:17.011Z,101283.08
2023-05-13T09:12:48.150Z,101282.58
2023-05-13T09:14:00.479Z,101281.30
2023-05-13T09:15:05.897Z,101277.98
2023-05-13T09:16:08.334Z,101272.34
2023-05-13T09:17:10.747Z,101274.39
2023-05-13T09:18:12.976Z,101275.94
2023-05-13T09:19:16.324Z,101276.66
2023-05-13T09:20:20.066Z,101274.34
2023-05-13T09:21:26.107Z,101263.34
2023-05-13T09:22:28.252Z,101268.98
2023-05-13T09:23:30.546Z,101269.75
2023-05-13T09:24:33.607Z,101269.02
2023-05-13T09:25:38.618Z,101265.44
2023-05-13T09:26:41.587Z,101264.70
2023-05-13T09:27:52.641Z,101260.37
2023-05-13T09:29:18.865Z,101258.86
2023-05-13T09:30:21.551Z,101260.91
2023-05-13T09:31:35.153Z,101256.58
2023-05-13T09:32:38.538Z,101244.55
2023-05-13T09:33:44.528Z,101243.04
2023-05-13T09:34:47.434Z,101241.25
2023-05-13T09:35:50.850Z,101244.36
2023-05-13T09:37:03.649Z,101242.39
2023-05-13T09:40:59.451Z,101240.40
2023-05-13T09:42:04.291Z,101242.96
2023-05-13T09:43:05.940Z,101248.11
2023-05-13T09:44:07.979Z,101239.64
2023-05-13T09:45:13.721Z,101238.86
2023-05-13T09:46:16.134Z,101234.75
2023-05-13T09:47:18.712Z,101237.30
2023-05-13T09:49:31.019Z,101242.70
2023-05-13T09:50:33.673Z,101242.91
2023-05-13T09:51:35.622Z,101233.41
2023-05-13T09:52:38.170Z,101232.38
2023-05-13T09:53:40.189Z,101241.09
2023-05-13T09:54:42.203Z,101237.01
2023-05-13T09:55:52.261Z,101233.16
2023-05-13T09:58:26.202Z,101232.66
2023-05-13T09:59:33.254Z,101231.55
2023-05-13T10:00:37.478Z,101218.71
2023-05-13T10:01:39.972Z,101222.05
2023-05-13T10:02:42.157Z,101217.68
2023-05-13T10:03:44.232Z,101222.82
2023-05-13T10:04:46.503Z,101222.05
2023-05-13T10:05:48.499Z,101221.80
2023-05-13T10:06:50.790Z,101215.67
2023-05-13T10:07:52.808Z,101215.94
2023-05-13T10:08:59.444Z,101220.30
2023-05-13T10:10:02.404Z,101221.34
2023-05-13T10:11:05.961Z,101221.09
2023-05-13T10:12:09.767Z,101218.27
2023-05-13T10:13:13.810Z,101216.20
2023-05-13T10:14:15.962Z,101218.54
2023-05-13T10:15:18.174Z,101222.16
2023-05-13T10:16:23.213Z,101213.40
2023-05-13T10:17:25.413Z,101216.75
2023-05-13T10:18:27.609Z,101208.02
2023-05-13T10:19:31.590Z,101210.86
2023-05-13T10:20:34.125Z,101214.70
2023-05-13T10:21:36.151Z,101204.70
2023-05-13T10:22:40.172Z,101221.62
2023-05-13T10:23:42.439Z,101210.84
2023-05-13T10:24:44.728Z,101207.77
2023-05-13T10:25:47.435Z,101204.16
2023-05-13T10:26:50.826Z,101202.36
2023-05-13T10:27:52.964Z,101203.39
2023-05-13T10:28:55.121Z,101201.33
2023-05-13T10:29:57.935Z,101204.19
2023-05-13T10:31:00.214Z,101209.06
2023-05-13T10:32:03.394Z,101200.59
2023-05-13T10:33:05.996Z,101199.30
2023-05-13T10:34:08.405Z,101192.87
2023-05-13T10:35:13.082Z,101195.95
2023-05-13T10:36:25.209Z,101190.30
2023-05-13T10:37:46.222Z,101190.55
2023-05-13T10:41:27.601Z,101182.58
2023-05-13T10:42:39.439Z,101189.00
2023-05-13T10:43:41.379Z,101180.27
2023-05-13T10:44:43.434Z,101191.06
2023-05-13T10:45:49.820Z,101180.02
2023-05-13T10:46:52.193Z,101180.53
2023-05-13T10:47:54.913Z,101184.88
2023-05-13T10:48:58.974Z,101180.79
2023-05-13T10:50:06.584Z,101187.73
2023-05-13T10:51:09.587Z,101188.76
2023-05-13T10:52:13.658Z,101187.98
2023-05-13T10:53:23.893Z,101187.73
2023-05-13T10:54:25.904Z,101184.87
2023-05-13T10:55:27.918Z,101184.35
2023-05-13T10:56:30.399Z,101187.17
